Time;durP1;ratioP1;P1;durP2;ratioP2;P2;SDS_P1;SDS_P2;PMS_P1;PMS_P2;Temp;Humidity;BMP_temperature;BMP_pressure;BME280_temperature;BME280_humidity;BME280_pressure;Samples;Min_cycle;Max_cycle;Signal;HPM_P1;HPM_P2
2023/07/24 00:00:23;;;;;;;11.52;5.50;;;17.30;99.90;;;;;;5092936;28;20047;-57
2023/07/24 00:02:50;;;;;;;14.00;5.80;;;17.30;99.90;;;;;;5093187;28;20047;-57
2023/07/24 00:05:15;;;;;;;12.10;5.75;;;17.30;99.90;;;;;;5103566;28;20027;-56
2023/07/24 00:07:41;;;;;;;11.18;6.00;;;17.30;99.90;;;;;;5110681;28;20036;-57
2023/07/24 00:10:07;;;;;;;12.75;6.13;;;17.20;99.90;;;;;;5104230;28;20031;-57
2023/07/24 00:12:33;;;;;;;11.73;5.07;;;17.30;99.90;;;;;;5113298;28;20093;-57
2023/07/24 00:14:58;;;;;;;13.13;6.35;;;17.30;99.90;;;;;;5113350;28;20040;-57
2023/07/24 00:17:24;;;;;;;10.38;5.20;;;17.30;99.90;;;;;;5106892;28;20043;-56
2023/07/24 00:19:50;;;;;;;11.82;5.25;;;17.30;99.90;;;;;;5107538;28;20114;-57
2023/07/24 00:22:16;;;;;;;13.25;5.80;;;17.30;99.90;;;;;;5105078;28;20023;-57
2023/07/24 00:24:41;;;;;;;14.25;5.18;;;17.30;99.90;;;;;;5103370;28;20040;-57
2023/07/24 00:27:07;;;;;;;11.25;5.35;;;17.20;99.90;;;;;;5112891;28;20036;-57
2023/07/24 00:29:33;;;;;;;10.05;5.15;;;17.30;99.90;;;;;;5112878;28;20114;-57
2023/07/24 00:31:58;;;;;;;10.38;5.22;;;17.20;99.90;;;;;;5111676;28;20528;-57
2023/07/24 00:34:24;;;;;;;12.18;5.40;;;17.30;99.90;;;;;;5112791;28;20110;-57
2023/07/24 00:36:50;;;;;;;11.07;5.53;;;17.30;99.90;;;;;;5112940;28;20086;-57
2023/07/24 00:39:15;;;;;;;11.68;5.32;;;17.20;99.90;;;;;;5112807;28;20093;-58
2023/07/24 00:41:43;;;;;;;14.70;5.88;;;17.20;99.90;;;;;;5112887;28;20491;-58
2023/07/24 00:44:08;;;;;;;10.85;5.03;;;17.20;99.90;;;;;;5112785;28;20036;-58
2023/07/24 00:46:35;;;;;;;11.30;5.18;;;17.20;99.90;;;;;;5111651;28;20036;-57
2023/07/24 00:49:02;;;;;;;11.38;4.97;;;17.20;99.90;;;;;;5112495;28;20462;-57
2023/07/24 00:51:28;;;;;;;11.30;5.22;;;17.20;99.90;;;;;;5112665;28;20044;-57
2023/07/24 00:54:02;;;;;;;15.15;5.57;;;17.20;99.90;;;;;;5097993;28;20109;-57
2023/07/24 00:56:28;;;;;;;13.13;5.82;;;17.10;99.90;;;;;;5092166;28;20071;-57
2023/07/24 00:58:57;;;;;;;13.60;5.60;;;17.10;99.90;;;;;;5091591;28;20136;-57
2023/07/24 01:01:24;;;;;;;13.85;6.65;;;17.20;99.90;;;;;;5092160;28;20069;-57
2023/07/24 01:03:52;;;;;;;11.98;6.03;;;17.20;99.90;;;;;;5092351;28;20431;-57
2023/07/24 01:06:17;;;;;;;13.00;5.63;;;17.10;99.90;;;;;;5092331;28;20150;-56
2023/07/24 01:08:43;;;;;;;12.35;5.47;;;17.10;99.90;;;;;;5092135;28;20074;-57
2023/07/24 01:11:16;;;;;;;14.98;5.80;;;17.10;99.90;;;;;;5092212;28;20036;-57
2023/07/24 01:13:51;;;;;;;13.02;6.45;;;17.10;99.90;;;;;;5109371;28;20035;-57
2023/07/24 01:16:21;;;;;;;15.25;6.03;;;17.10;99.90;;;;;;5111021;28;20043;-57
2023/07/24 01:18:48;;;;;;;15.43;6.20;;;17.10;99.90;;;;;;5112104;28;20036;-57
2023/07/24 01:21:18;;;;;;;16.27;7.88;;;17.10;99.90;;;;;;5112515;28;20043;-57
2023/07/24 01:23:59;;;;;;;14.23;7.03;;;17.00;99.90;;;;;;5112282;28;20040;-57
2023/07/24 01:26:25;;;;;;;15.13;6.55;;;17.00;99.90;;;;;;5112431;28;20036;-57
2023/07/24 01:28:51;;;;;;;15.38;6.80;;;17.00;99.90;;;;;;5112368;28;20047;-58
2023/07/24 01:31:17;;;;;;;15.05;6.65;;;16.90;99.90;;;;;;5112051;28;20042;-57
2023/07/24 01:33:44;;;;;;;11.10;5.80;;;16.90;99.90;;;;;;5112360;28;20415;-58
2023/07/24 01:36:10;;;;;;;12.77;6.15;;;16.80;99.90;;;;;;5112446;28;20035;-57
2023/07/24 01:38:37;;;;;;;13.73;6.40;;;16.90;99.90;;;;;;5112034;28;20039;-57
2023/07/24 01:41:04;;;;;;;10.27;5.28;;;16.90;99.90;;;;;;5114852;28;20504;-59
2023/07/24 01:43:31;;;;;;;11.10;5.18;;;16.80;99.90;;;;;;5116029;28;20051;-57
2023/07/24 01:45:58;;;;;;;13.80;5.68;;;16.90;99.90;;;;;;5115974;28;20043;-58
2023/07/24 01:48:23;;;;;;;11.02;6.03;;;16.80;99.90;;;;;;5115838;28;20525;-57
2023/07/24 01:50:50;;;;;;;13.98;6.30;;;16.90;99.90;;;;;;5116148;28;20067;-56
2023/07/24 01:53:15;;;;;;;12.73;5.95;;;16.80;99.90;;;;;;5106675;28;20040;-57
2023/07/24 01:55:41;;;;;;;11.40;5.82;;;16.90;99.90;;;;;;5095614;28;20085;-57
2023/07/24 01:58:07;;;;;;;12.05;5.93;;;16.90;99.90;;;;;;5095348;28;20105;-57
2023/07/24 02:00:33;;;;;;;13.77;6.80;;;16.80;99.90;;;;;;5095516;28;20044;-57
2023/07/24 02:02:58;;;;;;;15.45;6.93;;;16.80;99.90;;;;;;5095614;28;20123;-57
2023/07/24 02:05:25;;;;;;;13.38;6.38;;;16.80;99.90;;;;;;5095458;28;20032;-57
2023/07/24 02:07:51;;;;;;;15.77;7.97;;;16.80;99.90;;;;;;5095246;28;20499;-57
2023/07/24 02:10:16;;;;;;;12.88;6.90;;;16.80;99.90;;;;;;5094203;28;20047;-57
2023/07/24 02:12:42;;;;;;;14.25;7.78;;;16.70;99.90;;;;;;5095347;28;20044;-58
2023/07/24 02:15:08;;;;;;;15.85;8.00;;;16.70;99.90;;;;;;5095369;28;20089;-57
2023/07/24 02:17:34;;;;;;;13.25;6.95;;;16.70;99.90;;;;;;5095135;28;20178;-57
2023/07/24 02:20:00;;;;;;;17.58;7.80;;;16.70;99.90;;;;;;5093942;28;20114;-57
2023/07/24 02:22:25;;;;;;;11.77;6.90;;;16.60;99.90;;;;;;5095035;28;20484;-57
2023/07/24 02:24:51;;;;;;;15.23;8.05;;;16.60;99.90;;;;;;5094867;28;20039;-57
2023/07/24 02:27:33;;;;;;;15.93;7.50;;;16.60;99.90;;;;;;5094977;28;20032;-58
2023/07/24 02:30:00;;;;;;;14.18;8.02;;;16.70;99.90;;;;;;5095039;28;20085;-57
2023/07/24 02:32:25;;;;;;;14.45;8.40;;;16.70;99.90;;;;;;5094777;28;20613;-57
2023/07/24 02:34:52;;;;;;;14.32;8.25;;;16.70;99.90;;;;;;5093724;28;20044;-57
2023/07/24 02:37:18;;;;;;;15.98;8.82;;;16.60;99.90;;;;;;5094735;28;20043;-57
2023/07/24 02:39:44;;;;;;;14.45;9.07;;;16.70;99.90;;;;;;5093414;28;20039;-56
2023/07/24 02:42:10;;;;;;;16.55;10.10;;;16.60;99.90;;;;;;5094826;28;20551;-56
2023/07/24 02:44:36;;;;;;;13.63;8.43;;;16.70;99.90;;;;;;5094514;28;20044;-56
2023/07/24 02:47:02;;;;;;;15.60;9.68;;;16.70;99.90;;;;;;5094730;28;20075;-57
2023/07/24 02:49:28;;;;;;;17.13;9.95;;;16.70;99.90;;;;;;5094287;28;20036;-57
2023/07/24 02:51:54;;;;;;;16.77;10.30;;;16.70;99.90;;;;;;5059425;28;20463;-57
2023/07/24 02:54:20;;;;;;;17.05;10.80;;;16.70;99.90;;;;;;5113407;28;20067;-57
2023/07/24 02:56:45;;;;;;;14.90;9.45;;;16.70;99.90;;;;;;5114654;28;20075;-57
2023/07/24 02:59:11;;;;;;;14.88;9.82;;;16.70;99.90;;;;;;5114389;28;20055;-57
2023/07/24 03:01:37;;;;;;;17.25;9.93;;;16.70;99.90;;;;;;5114751;28;20043;-57
2023/07/24 03:04:05;;;;;;;17.23;10.80;;;16.70;99.90;;;;;;5114468;28;20063;-57
2023/07/24 03:06:31;;;;;;;17.90;10.20;;;16.80;99.90;;;;;;5114799;28;20043;-56
2023/07/24 03:08:56;;;;;;;16.27;10.48;;;16.80;99.90;;;;;;5114394;28;20478;-57
2023/07/24 03:11:22;;;;;;;16.50;10.13;;;16.70;99.90;;;;;;5114627;28;20071;-56
2023/07/24 03:13:48;;;;;;;17.80;10.20;;;16.80;99.90;;;;;;5114648;28;20043;-57
2023/07/24 03:16:13;;;;;;;18.23;10.02;;;16.80;99.90;;;;;;5114403;28;20552;-56
2023/07/24 03:18:39;;;;;;;17.50;10.65;;;16.70;99.90;;;;;;5114314;28;20035;-58
2023/07/24 03:21:05;;;;;;;20.35;10.65;;;16.70;99.90;;;;;;5114075;28;20043;-58
2023/07/24 03:23:30;;;;;;;16.55;10.32;;;16.80;99.90;;;;;;5114049;28;20032;-57
2023/07/24 03:25:56;;;;;;;16.00;9.77;;;16.80;99.90;;;;;;5114249;28;20031;-56
2023/07/24 03:28:22;;;;;;;16.15;9.23;;;16.80;99.90;;;;;;5113883;28;20781;-57
2023/07/24 03:30:47;;;;;;;16.17;9.25;;;16.80;99.90;;;;;;5114125;28;20058;-57
2023/07/24 03:33:13;;;;;;;16.92;8.73;;;16.80;99.90;;;;;;5114031;28;20047;-57
2023/07/24 03:35:39;;;;;;;14.73;9.25;;;16.80;99.90;;;;;;5113972;28;20039;-57
2023/07/24 03:38:05;;;;;;;15.98;8.63;;;16.70;99.90;;;;;;5113746;28;20491;-56
2023/07/24 03:40:31;;;;;;;14.85;8.60;;;16.80;99.90;;;;;;5114052;28;20039;-57
2023/07/24 03:42:56;;;;;;;15.05;8.73;;;16.80;99.90;;;;;;5112739;28;20036;-57
2023/07/24 03:45:22;;;;;;;14.27;8.20;;;16.80;99.90;;;;;;5113802;28;20035;-57
2023/07/24 03:47:48;;;;;;;15.73;9.00;;;16.80;99.90;;;;;;5113573;28;20620;-57
2023/07/24 03:50:14;;;;;;;13.38;8.82;;;16.90;99.90;;;;;;5113268;28;20043;-57
2023/07/24 03:52:39;;;;;;;14.45;8.40;;;16.90;99.90;;;;;;5109314;28;20071;-57
2023/07/24 03:55:06;;;;;;;14.25;9.40;;;16.90;99.90;;;;;;5093245;28;20048;-57
2023/07/24 03:57:31;;;;;;;14.65;8.63;;;16.90;99.90;;;;;;5093086;28;20052;-57
2023/07/24 03:59:57;;;;;;;13.32;7.90;;;16.90;99.90;;;;;;5091957;28;20423;-57
2023/07/24 04:02:23;;;;;;;14.60;8.05;;;16.90;99.90;;;;;;5092605;28;20069;-56
2023/07/24 04:04:49;;;;;;;13.35;8.32;;;16.90;99.90;;;;;;5093333;28;20039;-56
2023/07/24 04:07:15;;;;;;;12.73;8.00;;;16.90;99.90;;;;;;5092996;28;20137;-57
2023/07/24 04:09:40;;;;;;;15.75;7.70;;;16.90;99.90;;;;;;5092893;28;20047;-57
2023/07/24 04:12:06;;;;;;;15.45;7.55;;;16.90;99.90;;;;;;5093025;28;20063;-57
2023/07/24 04:14:32;;;;;;;14.23;7.90;;;16.90;99.90;;;;;;5092998;28;20116;-57
2023/07/24 04:16:57;;;;;;;15.30;8.07;;;16.80;99.90;;;;;;5093051;28;20032;-57
2023/07/24 04:19:23;;;;;;;13.68;7.60;;;17.00;99.90;;;;;;5092589;28;20039;-56
2023/07/24 04:21:49;;;;;;;11.40;7.93;;;16.80;99.90;;;;;;5092919;28;20051;-57
2023/07/24 04:24:14;;;;;;;12.48;7.22;;;16.90;99.90;;;;;;5092580;28;20137;-56
2023/07/24 04:26:40;;;;;;;12.88;6.63;;;16.90;99.90;;;;;;5092890;28;20074;-57
2023/07/24 04:29:06;;;;;;;13.15;7.22;;;17.00;99.90;;;;;;5092741;28;20051;-57
2023/07/24 04:31:32;;;;;;;12.15;7.07;;;16.90;99.90;;;;;;5092793;28;20094;-57
2023/07/24 04:33:58;;;;;;;14.45;7.40;;;16.90;99.90;;;;;;5092475;28;20039;-57
2023/07/24 04:36:23;;;;;;;11.25;6.95;;;16.90;99.90;;;;;;5091084;28;20403;-57
2023/07/24 04:38:49;;;;;;;14.00;6.65;;;16.90;99.90;;;;;;5092603;28;20547;-57
2023/07/24 04:41:15;;;;;;;14.07;6.88;;;17.00;99.90;;;;;;5091093;28;20419;-56
2023/07/24 04:43:40;;;;;;;16.10;8.52;;;16.90;99.90;;;;;;5092515;28;20039;-57
2023/07/24 04:46:06;;;;;;;12.07;6.85;;;16.90;99.90;;;;;;5092554;28;20044;-57
2023/07/24 04:48:31;;;;;;;11.18;6.93;;;17.00;99.90;;;;;;5092298;28;20423;-57
2023/07/24 04:50:57;;;;;;;11.10;6.57;;;17.00;99.90;;;;;;5090952;28;20044;-57
2023/07/24 04:53:23;;;;;;;13.65;7.80;;;17.00;99.90;;;;;;5102379;28;20040;-57
2023/07/24 04:55:49;;;;;;;12.15;7.25;;;17.00;99.90;;;;;;5111569;28;20040;-57
2023/07/24 04:58:15;;;;;;;12.85;6.82;;;17.00;99.90;;;;;;5112112;28;20060;-57
2023/07/24 05:00:41;;;;;;;13.07;7.55;;;17.00;99.90;;;;;;5112563;28;20557;-57
2023/07/24 05:03:10;;;;;;;13.52;8.10;;;17.00;99.90;;;;;;5112372;28;20031;-56
2023/07/24 05:05:39;;;;;;;13.63;7.35;;;17.00;99.90;;;;;;5112713;28;20124;-57
2023/07/24 05:08:05;;;;;;;12.68;7.60;;;17.00;99.90;;;;;;5112355;28;20042;-57
2023/07/24 05:10:40;;;;;;;16.15;7.82;;;17.00;99.90;;;;;;5111527;28;20050;-56
2023/07/24 05:13:06;;;;;;;12.63;7.47;;;17.10;99.90;;;;;;5112413;28;20040;-56
2023/07/24 05:15:31;;;;;;;13.27;8.85;;;17.10;99.90;;;;;;5116570;28;20067;-57
2023/07/24 05:17:57;;;;;;;15.15;8.60;;;17.10;99.90;;;;;;5116517;28;20065;-57
2023/07/24 05:20:23;;;;;;;13.48;7.95;;;17.10;99.90;;;;;;5116831;28;20032;-56
2023/07/24 05:22:48;;;;;;;13.57;8.18;;;17.10;99.90;;;;;;5116627;28;20032;-56
2023/07/24 05:25:14;;;;;;;13.15;7.88;;;17.10;99.90;;;;;;5116601;28;20165;-56
2023/07/24 05:27:39;;;;;;;14.57;8.40;;;17.10;99.90;;;;;;5116398;28;20039;-55
2023/07/24 05:30:06;;;;;;;14.32;8.20;;;17.10;99.90;;;;;;5116308;28;20044;-56
2023/07/24 05:32:31;;;;;;;13.55;8.10;;;17.10;99.90;;;;;;5116326;28;20469;-56
2023/07/24 05:34:57;;;;;;;12.77;8.65;;;17.20;99.90;;;;;;5116191;28;20067;-56
2023/07/24 05:37:23;;;;;;;14.43;8.20;;;17.10;99.90;;;;;;5115755;28;20361;-56
2023/07/24 05:39:48;;;;;;;15.57;9.10;;;17.10;99.90;;;;;;5115200;28;20063;-56
2023/07/24 05:42:14;;;;;;;15.00;8.32;;;17.10;99.90;;;;;;5115296;28;20039;-56
2023/07/24 05:44:40;;;;;;;13.10;8.98;;;17.10;99.90;;;;;;5115597;28;20483;-56
2023/07/24 05:47:05;;;;;;;15.05;9.40;;;17.20;99.90;;;;;;5114947;28;20695;-56
2023/07/24 05:49:31;;;;;;;16.00;9.32;;;17.10;99.90;;;;;;5115107;28;20074;-56
2023/07/24 05:51:57;;;;;;;14.00;9.60;;;17.10;99.90;;;;;;5115225;28;20371;-56
2023/07/24 05:54:23;;;;;;;12.07;8.30;;;17.10;99.90;;;;;;5096360;28;20463;-57
2023/07/24 05:56:48;;;;;;;14.93;9.15;;;17.10;99.90;;;;;;5094991;28;20070;-57
2023/07/24 05:59:14;;;;;;;13.63;9.05;;;17.10;99.90;;;;;;5092837;28;20078;-56
2023/07/24 06:01:40;;;;;;;13.38;9.13;;;17.10;99.90;;;;;;5094500;28;20040;-56
2023/07/24 06:04:07;;;;;;;15.18;9.93;;;17.10;99.90;;;;;;5093860;28;20541;-56
2023/07/24 06:06:33;;;;;;;15.70;9.40;;;17.10;99.90;;;;;;5092738;28;20048;-56
2023/07/24 06:08:58;;;;;;;14.13;9.57;;;17.10;99.90;;;;;;5094119;28;20119;-56
2023/07/24 06:11:26;;;;;;;15.77;9.80;;;17.10;99.90;;;;;;5094077;28;20761;-58
2023/07/24 06:13:52;;;;;;;15.32;9.85;;;17.20;99.90;;;;;;5094096;28;20097;-56
2023/07/24 06:16:18;;;;;;;12.85;8.43;;;17.10;99.90;;;;;;5094268;28;20048;-56
2023/07/24 06:18:44;;;;;;;14.05;8.80;;;17.20;99.90;;;;;;5094054;28;20079;-56
2023/07/24 06:21:10;;;;;;;16.83;9.65;;;17.30;99.90;;;;;;5094286;28;20464;-57
2023/07/24 06:23:36;;;;;;;13.55;8.85;;;17.30;99.90;;;;;;5093655;28;20170;-56
2023/07/24 06:26:01;;;;;;;14.27;9.00;;;17.30;99.90;;;;;;5093344;28;20036;-56
2023/07/24 06:28:31;;;;;;;14.88;8.93;;;17.40;99.90;;;;;;5094266;28;20044;-56
2023/07/24 06:30:56;;;;;;;16.70;8.95;;;17.40;99.90;;;;;;5094267;28;20044;-55
2023/07/24 06:33:22;;;;;;;14.13;9.15;;;17.30;99.90;;;;;;5093753;28;20570;-55
2023/07/24 06:35:49;;;;;;;14.55;9.48;;;17.40;99.90;;;;;;5093952;28;20082;-55
2023/07/24 06:38:15;;;;;;;15.07;9.38;;;17.50;99.90;;;;;;5093967;28;20541;-55
2023/07/24 06:40:41;;;;;;;16.25;9.40;;;17.50;99.90;;;;;;5093822;28;20043;-58
2023/07/24 06:43:06;;;;;;;14.25;8.30;;;17.50;99.90;;;;;;5093676;28;20036;-54
2023/07/24 06:45:32;;;;;;;16.60;8.55;;;17.60;99.90;;;;;;5093746;28;20093;-55
2023/07/24 06:47:58;;;;;;;12.98;7.93;;;17.70;99.90;;;;;;5093931;28;20059;-54
2023/07/24 06:50:24;;;;;;;16.83;8.98;;;17.70;99.90;;;;;;5093528;28;20488;-55
2023/07/24 06:52:51;;;;;;;14.80;9.20;;;17.80;99.90;;;;;;5098931;28;20131;-55
2023/07/24 06:55:17;;;;;;;11.98;8.07;;;17.70;99.90;;;;;;5114048;28;20039;-55
2023/07/24 06:57:43;;;;;;;15.95;9.23;;;17.80;99.90;;;;;;5108367;28;21392;-55
2023/07/24 07:00:11;;;;;;;17.33;9.13;;;17.80;99.90;;;;;;5103147;28;20044;-54
2023/07/24 07:02:37;;;;;;;13.55;8.63;;;17.80;99.90;;;;;;5103546;28;20024;-55
2023/07/24 07:05:04;;;;;;;12.90;8.18;;;18.00;99.90;;;;;;5097974;28;20075;-55
2023/07/24 07:07:29;;;;;;;14.02;8.50;;;18.00;99.90;;;;;;5093476;28;20059;-55
2023/07/24 07:09:55;;;;;;;13.45;8.23;;;18.00;99.90;;;;;;5100741;28;20032;-55
2023/07/24 07:12:21;;;;;;;14.57;8.38;;;18.00;99.90;;;;;;5112597;28;20043;-55
2023/07/24 07:14:46;;;;;;;12.93;8.30;;;18.00;99.90;;;;;;5113384;28;20086;-55
2023/07/24 07:17:12;;;;;;;14.45;7.93;;;18.00;99.90;;;;;;5113611;28;20123;-55
2023/07/24 07:19:38;;;;;;;14.77;8.07;;;18.20;99.90;;;;;;5113220;28;20139;-55
2023/07/24 07:22:04;;;;;;;13.90;8.65;;;18.10;99.90;;;;;;5113263;28;20051;-55
2023/07/24 07:24:29;;;;;;;14.95;8.77;;;18.10;99.90;;;;;;5113121;28;20048;-55
2023/07/24 07:26:55;;;;;;;16.27;9.00;;;18.10;99.90;;;;;;5113233;28;20063;-55
2023/07/24 07:29:21;;;;;;;16.48;9.35;;;18.20;99.90;;;;;;5111810;28;20377;-55
2023/07/24 07:31:46;;;;;;;16.67;8.45;;;18.30;99.90;;;;;;5113243;28;20083;-55
2023/07/24 07:34:12;;;;;;;16.13;9.15;;;18.40;99.90;;;;;;5112795;28;20647;-55
2023/07/24 07:36:38;;;;;;;14.35;8.52;;;18.40;99.90;;;;;;5112852;28;20357;-55
2023/07/24 07:39:03;;;;;;;12.35;7.40;;;18.50;99.90;;;;;;5111743;28;20036;-55
2023/07/24 07:41:29;;;;;;;15.55;8.18;;;18.60;99.90;;;;;;5112970;28;20456;-54
2023/07/24 07:43:55;;;;;;;14.52;8.10;;;18.60;99.90;;;;;;5112233;28;20129;-56
2023/07/24 07:46:21;;;;;;;16.60;7.80;;;18.60;99.90;;;;;;5112695;28;20051;-55
2023/07/24 07:48:47;;;;;;;16.58;8.02;;;18.70;99.90;;;;;;5112720;28;20085;-55
2023/07/24 07:51:12;;;;;;;16.23;8.52;;;18.70;99.90;;;;;;5112626;28;20075;-55
2023/07/24 07:53:38;;;;;;;18.98;8.10;;;18.80;99.90;;;;;;5112546;28;20210;-56
2023/07/24 07:56:04;;;;;;;13.50;8.35;;;19.00;99.90;;;;;;5111926;28;20040;-56
2023/07/24 07:58:30;;;;;;;13.98;7.90;;;18.90;99.90;;;;;;5112142;28;20523;-56
2023/07/24 08:00:55;;;;;;;16.13;8.40;;;19.00;99.90;;;;;;5112482;28;20082;-56
2023/07/24 08:03:22;;;;;;;12.57;7.55;;;19.00;99.90;;;;;;5112628;28;20783;-56
2023/07/24 08:05:47;;;;;;;15.35;7.50;;;19.00;99.90;;;;;;5112355;28;20122;-57
2023/07/24 08:08:13;;;;;;;16.05;8.07;;;19.20;99.90;;;;;;5112218;28;20526;-57
2023/07/24 08:10:39;;;;;;;13.68;7.95;;;19.20;99.90;;;;;;5104936;28;20039;-57
2023/07/24 08:13:07;;;;;;;15.63;8.45;;;19.20;99.90;;;;;;5101258;28;20042;-56
2023/07/24 08:15:36;;;;;;;16.45;8.88;;;19.00;99.90;;;;;;5112332;28;20048;-55
2023/07/24 08:18:04;;;;;;;14.07;8.88;;;19.20;99.90;;;;;;5111867;28;20039;-56
2023/07/24 08:20:30;;;;;;;12.40;6.97;;;19.00;99.90;;;;;;5110424;28;20044;-56
2023/07/24 08:22:56;;;;;;;14.07;7.63;;;19.20;99.90;;;;;;5111895;28;20042;-56
2023/07/24 08:25:21;;;;;;;12.85;6.50;;;19.30;99.90;;;;;;5111859;28;20040;-56
2023/07/24 08:27:47;;;;;;;16.25;7.53;;;19.30;99.90;;;;;;5112001;28;20085;-55
2023/07/24 08:30:13;;;;;;;15.30;7.75;;;19.40;99.90;;;;;;5108890;28;20437;-57
2023/07/24 08:32:39;;;;;;;12.55;7.13;;;19.50;99.90;;;;;;5099203;28;20039;-57
2023/07/24 08:35:05;;;;;;;16.05;8.55;;;19.50;99.90;;;;;;5111948;28;20520;-57
2023/07/24 08:37:31;;;;;;;14.63;7.88;;;19.50;99.90;;;;;;5112127;28;20461;-58
2023/07/24 08:39:57;;;;;;;15.15;7.55;;;19.50;99.90;;;;;;5112161;28;20036;-58
2023/07/24 08:42:23;;;;;;;16.42;8.30;;;19.50;99.90;;;;;;5111840;28;20023;-57
2023/07/24 08:44:50;;;;;;;15.85;7.85;;;19.50;99.90;;;;;;5110762;28;20082;-58
2023/07/24 08:47:16;;;;;;;12.70;7.47;;;19.60;99.90;;;;;;5110735;28;20047;-58
2023/07/24 08:49:43;;;;;;;14.88;6.82;;;19.60;99.90;;;;;;5111332;28;20043;-59
2023/07/24 08:52:09;;;;;;;14.32;7.20;;;19.70;99.90;;;;;;5111450;28;20039;-58
2023/07/24 08:54:38;;;;;;;14.85;7.68;;;19.80;99.90;;;;;;5090069;28;20048;-58
2023/07/24 08:57:07;;;;;;;12.27;6.45;;;19.80;99.90;;;;;;5091043;28;20079;-59
2023/07/24 08:59:34;;;;;;;16.20;7.47;;;19.90;99.90;;;;;;5089499;28;20060;-58
2023/07/24 09:02:00;;;;;;;16.55;7.20;;;19.70;99.90;;;;;;5091573;28;20044;-57
2023/07/24 09:04:26;;;;;;;12.98;6.90;;;19.80;99.90;;;;;;5092051;28;20054;-58
2023/07/24 09:06:53;;;;;;;13.05;7.00;;;19.70;99.90;;;;;;5091984;28;20039;-58
2023/07/24 09:09:19;;;;;;;13.73;7.30;;;19.80;99.90;;;;;;5091873;28;20048;-58
2023/07/24 09:11:50;;;;;;;13.10;6.82;;;19.80;99.90;;;;;;5091997;28;20039;-58
2023/07/24 09:14:27;;;;;;;15.68;7.45;;;19.90;99.90;;;;;;5091946;28;20043;-58
2023/07/24 09:17:10;;;;;;;13.05;7.00;;;20.00;99.90;;;;;;5092040;28;20484;-59
2023/07/24 09:19:38;;;;;;;14.23;7.15;;;20.00;99.90;;;;;;5091957;28;20500;-58
2023/07/24 09:22:14;;;;;;;14.80;7.95;;;20.20;99.90;;;;;;5094596;28;20491;-57
2023/07/24 09:24:53;;;;;;;12.10;7.20;;;20.10;99.90;;;;;;5103227;28;20071;-57
2023/07/24 09:27:20;;;;;;;12.65;6.47;;;20.60;99.90;;;;;;5112341;28;20075;-58
2023/07/24 09:29:46;;;;;;;14.88;7.53;;;20.90;99.90;;;;;;5112317;28;20052;-58
2023/07/24 09:32:20;;;;;;;11.98;5.70;;;20.90;99.90;;;;;;5112558;28;20136;-58
2023/07/24 09:34:47;;;;;;;12.55;7.00;;;20.90;99.90;;;;;;5112209;28;20069;-58
2023/07/24 09:37:23;;;;;;;10.45;6.57;;;20.80;99.90;;;;;;5112171;28;20506;-58
2023/07/24 09:39:48;;;;;;;12.50;5.95;;;21.00;99.90;;;;;;5112180;28;20554;-58
2023/07/24 09:42:14;;;;;;;11.52;6.97;;;21.20;99.90;;;;;;5112037;28;20127;-58
2023/07/24 09:44:40;;;;;;;12.00;5.90;;;21.20;99.90;;;;;;5111081;28;20055;-58
2023/07/24 09:47:06;;;;;;;9.38;5.20;;;21.20;99.90;;;;;;5112111;28;20044;-57
2023/07/24 09:49:32;;;;;;;10.18;5.75;;;21.30;99.90;;;;;;5112343;28;20044;-58
2023/07/24 09:52:03;;;;;;;11.23;5.85;;;21.50;99.90;;;;;;5111985;28;20054;-60
2023/07/24 09:54:40;;;;;;;13.77;5.22;;;21.60;99.90;;;;;;5092312;28;20040;-58
2023/07/24 09:57:08;;;;;;;9.27;5.18;;;21.70;99.90;;;;;;5091725;28;20050;-58
2023/07/24 09:59:35;;;;;;;13.07;5.50;;;21.90;99.90;;;;;;5091312;28;20082;-59
2023/07/24 10:02:01;;;;;;;10.95;6.22;;;22.10;99.90;;;;;;5094312;28;20074;-58
2023/07/24 10:04:27;;;;;;;10.40;5.45;;;22.20;99.90;;;;;;5095353;28;20054;-58
2023/07/24 10:06:53;;;;;;;13.60;6.30;;;22.00;99.90;;;;;;5094987;28;20105;-59
2023/07/24 10:09:22;;;;;;;10.95;5.80;;;21.30;99.90;;;;;;5095067;28;20044;-58
2023/07/24 10:11:48;;;;;;;10.15;5.18;;;20.40;99.90;;;;;;5095086;28;20071;-59
2023/07/24 10:14:14;;;;;;;9.68;5.38;;;19.60;99.90;;;;;;5095244;28;20466;-59
2023/07/24 10:16:40;;;;;;;9.45;4.40;;;19.10;99.90;;;;;;5095163;28;20406;-59
2023/07/24 10:19:18;;;;;;;10.10;4.85;;;19.00;99.90;;;;;;5094773;28;20049;-59
2023/07/24 10:21:51;;;;;;;9.35;5.75;;;19.00;99.90;;;;;;5094856;28;20044;-58
2023/07/24 10:24:17;;;;;;;9.77;5.50;;;19.00;99.90;;;;;;5109469;28;20028;-59
2023/07/24 10:26:43;;;;;;;10.82;6.50;;;18.90;99.90;;;;;;5115156;28;20058;-59
2023/07/24 10:29:09;;;;;;;10.07;5.03;;;19.00;99.90;;;;;;5114885;27;20505;-59
2023/07/24 10:31:35;;;;;;;8.27;3.72;;;19.10;99.90;;;;;;5113717;28;20108;-60
2023/07/24 10:34:05;;;;;;;6.93;3.28;;;19.20;99.90;;;;;;5114701;28;20475;-59
2023/07/24 10:36:36;;;;;;;7.00;4.15;;;19.20;99.90;;;;;;5115188;28;20135;-60
2023/07/24 10:39:02;;;;;;;7.88;4.55;;;19.50;99.90;;;;;;5115006;28;20040;-60
2023/07/24 10:41:38;;;;;;;9.10;5.70;;;19.30;99.90;;;;;;5115018;28;20036;-59
2023/07/24 10:44:04;;;;;;;10.20;5.28;;;19.40;99.90;;;;;;5113725;28;20043;-59
2023/07/24 10:46:41;;;;;;;10.40;6.03;;;19.00;99.90;;;;;;5115001;28;20047;-59
2023/07/24 10:49:08;;;;;;;9.18;5.57;;;18.40;99.90;;;;;;5113404;28;20075;-58
2023/07/24 10:51:37;;;;;;;12.35;6.25;;;18.40;99.90;;;;;;5114815;28;20039;-57
2023/07/24 10:54:04;;;;;;;10.52;6.90;;;18.30;99.90;;;;;;5113436;28;20043;-57
2023/07/24 10:56:29;;;;;;;15.00;7.45;;;18.50;99.90;;;;;;5114539;28;20518;-58
2023/07/24 10:58:55;;;;;;;14.60;8.15;;;18.60;99.90;;;;;;5114531;28;20051;-58
2023/07/24 11:01:23;;;;;;;11.68;7.57;;;18.60;99.90;;;;;;5114387;28;20054;-57
2023/07/24 11:03:49;;;;;;;11.90;7.55;;;18.40;99.90;;;;;;5113213;28;20058;-58
2023/07/24 11:06:17;;;;;;;11.93;8.88;;;18.40;99.90;;;;;;5114414;28;20506;-57
2023/07/24 11:08:52;;;;;;;12.75;8.93;;;18.40;99.90;;;;;;5113910;28;20071;-57
2023/07/24 11:11:18;;;;;;;14.25;8.68;;;18.40;99.90;;;;;;5112974;28;20047;-58
2023/07/24 11:13:43;;;;;;;15.77;9.52;;;18.60;99.90;;;;;;5112594;28;20044;-58
2023/07/24 11:16:09;;;;;;;14.88;9.43;;;19.00;99.90;;;;;;5114115;28;20039;-58
2023/07/24 11:18:48;;;;;;;14.93;9.98;;;19.30;99.90;;;;;;5114134;28;20127;-58
2023/07/24 11:21:16;;;;;;;13.88;8.77;;;19.60;99.90;;;;;;5114341;28;20043;-58
2023/07/24 11:23:52;;;;;;;11.45;7.90;;;19.50;99.90;;;;;;5114139;28;20495;-57
2023/07/24 11:26:27;;;;;;;20.77;8.80;;;19.60;99.90;;;;;;5112623;28;20495;-58
2023/07/24 11:28:54;;;;;;;14.23;8.55;;;19.60;99.90;;;;;;5113739;28;20040;-57
2023/07/24 11:31:20;;;;;;;11.82;8.15;;;19.60;99.90;;;;;;5113829;28;20043;-57
2023/07/24 11:33:47;;;;;;;12.93;8.10;;;19.70;99.90;;;;;;5112926;28;20043;-58
2023/07/24 11:36:14;;;;;;;14.00;8.05;;;19.80;99.90;;;;;;5113037;28;20108;-57
2023/07/24 11:38:39;;;;;;;11.60;7.85;;;20.00;99.90;;;;;;5113813;28;20101;-57
2023/07/24 11:41:05;;;;;;;12.98;7.93;;;20.40;99.90;;;;;;5113697;28;20441;-57
2023/07/24 11:43:31;;;;;;;11.50;7.25;;;20.30;99.90;;;;;;5113734;28;20040;-57
2023/07/24 11:45:57;;;;;;;12.40;7.97;;;20.20;99.90;;;;;;5113930;28;20040;-57
2023/07/24 11:48:24;;;;;;;11.73;8.27;;;20.10;99.90;;;;;;5113780;28;20395;-57
2023/07/24 11:50:52;;;;;;;12.88;8.32;;;20.10;99.90;;;;;;5113554;28;20035;-57
2023/07/24 11:53:21;;;;;;;10.57;7.78;;;20.00;99.90;;;;;;5112647;28;20069;-57
2023/07/24 11:55:47;;;;;;;11.73;8.25;;;19.70;99.90;;;;;;5112959;28;20505;-57
2023/07/24 11:58:15;;;;;;;11.98;8.32;;;19.60;99.90;;;;;;5113189;28;20055;-57
2023/07/24 12:00:42;;;;;;;12.05;7.68;;;19.80;99.90;;;;;;5113471;28;20105;-57
2023/07/24 12:03:08;;;;;;;13.13;7.70;;;19.60;99.90;;;;;;5111857;28;20560;-57
2023/07/24 12:05:43;;;;;;;13.00;8.93;;;19.50;99.90;;;;;;5113376;28;20231;-58
2023/07/24 12:08:10;;;;;;;12.57;7.88;;;19.30;99.90;;;;;;5113355;28;20031;-57
2023/07/24 12:10:40;;;;;;;11.02;7.45;;;19.40;99.90;;;;;;5113323;28;20040;-57
2023/07/24 12:13:06;;;;;;;11.52;7.43;;;19.40;99.90;;;;;;5113077;28;20047;-57
2023/07/24 12:15:33;;;;;;;11.27;8.43;;;19.40;99.90;;;;;;5113120;28;20043;-57
2023/07/24 12:18:00;;;;;;;9.25;6.15;;;19.50;99.90;;;;;;5113151;28;20039;-57
2023/07/24 12:20:26;;;;;;;9.70;6.70;;;19.40;99.90;;;;;;5111853;28;20043;-58
2023/07/24 12:22:52;;;;;;;10.27;6.97;;;19.40;99.90;;;;;;5111724;28;20047;-57
2023/07/24 12:25:18;;;;;;;9.43;6.78;;;19.50;99.90;;;;;;5112783;28;20035;-57
2023/07/24 12:27:43;;;;;;;9.90;6.65;;;19.30;99.90;;;;;;5112907;28;20063;-56
2023/07/24 12:30:09;;;;;;;8.45;5.47;;;19.30;99.90;;;;;;5112952;28;20041;-57
2023/07/24 12:32:35;;;;;;;8.18;5.07;;;19.20;99.90;;;;;;5112970;28;20047;-57
2023/07/24 12:35:01;;;;;;;9.52;5.40;;;19.10;99.90;;;;;;5111472;28;20078;-58